Time;durP1;ratioP1;P1;durP2;ratioP2;P2;SDS_P1;SDS_P2;PMS_P1;PMS_P2;Temp;Humidity;BMP_temperature;BMP_pressure;BME280_temperature;BME280_humidity;BME280_pressure;Samples;Min_cycle;Max_cycle;Signal;HPM_P1;HPM_P2
2023/05/18 00:02:50;;;;;;;;;;;;;;;13.27;79.86;100489.00;5398396;32;37160;-87
2023/05/18 00:05:52;;;;;;;;;;;;;;;14.09;77.16;100492.72;5397838;32;34605;-88
2023/05/18 00:08:54;;;;;;;;;;;;;;;13.72;79.27;100503.50;5398928;32;34239;-88
2023/05/18 00:11:57;;;;;;;;;;;;;;;13.79;78.84;100494.31;5397053;32;35040;-87
2023/05/18 00:15:02;;;;;;;;;;;;;;;13.22;80.91;100496.28;5380660;32;35354;-88
2023/05/18 00:18:05;;;;;;;;;;;;;;;13.43;80.80;100494.37;5401371;32;36144;-88
2023/05/18 00:21:07;;;;;;;;;;;;;;;13.94;78.62;100490.03;5397049;32;36035;-87
2023/05/18 00:24:10;;;;;;;;;;;;;;;13.70;79.09;100484.22;5406561;32;36031;-88
2023/05/18 00:27:12;;;;;;;;;;;;;;;13.79;79.12;100502.25;5396272;32;34955;-88
2023/05/18 00:30:16;;;;;;;;;;;;;;;12.90;82.85;100503.91;5387899;32;34404;-87
2023/05/18 00:33:18;;;;;;;;;;;;;;;13.20;82.09;100500.72;5393680;32;44628;-87
2023/05/18 00:36:20;;;;;;;;;;;;;;;13.44;82.67;100499.56;5367714;32;36080;-87
2023/05/18 00:39:22;;;;;;;;;;;;;;;13.21;86.72;100498.06;5380381;32;36440;-88
2023/05/18 00:42:24;;;;;;;;;;;;;;;13.39;84.76;100496.28;5386113;32;35124;-86
2023/05/18 00:45:27;;;;;;;;;;;;;;;13.41;84.72;100493.59;5396791;32;36981;-88
2023/05/18 00:48:32;;;;;;;;;;;;;;;13.31;84.55;100501.09;5364651;32;35544;-89
2023/05/18 00:51:34;;;;;;;;;;;;;;;13.91;82.16;100508.69;5393886;32;35229;-86
2023/05/18 00:54:36;;;;;;;;;;;;;;;13.57;85.40;100509.53;5391016;32;35202;-87
2023/05/18 00:57:40;;;;;;;;;;;;;;;13.49;84.89;100496.69;5386521;32;35144;-86
2023/05/18 01:00:45;;;;;;;;;;;;;;;14.05;80.47;100512.34;5383672;32;37376;-87
2023/05/18 01:03:47;;;;;;;;;;;;;;;13.70;84.71;100506.19;5392188;32;44960;-87
2023/05/18 01:06:49;;;;;;;;;;;;;;;13.31;86.26;100509.00;5395148;32;35691;-87
2023/05/18 01:09:52;;;;;;;;;;;;;;;13.40;84.86;100505.09;5392851;32;37187;-87
2023/05/18 01:13:00;;;;;;;;;;;;;;;13.99;82.96;100506.53;5389403;32;35246;-86
2023/05/18 01:16:02;;;;;;;;;;;;;;;13.28;85.69;100511.81;5385809;32;35921;-87
2023/05/18 01:19:16;;;;;;;;;;;;;;;13.36;83.44;100519.34;5407991;32;35800;-88
2023/05/18 01:22:37;;;;;;;;;;;;;;;13.24;86.23;100512.88;5401609;32;45542;-87
2023/05/18 01:25:39;;;;;;;;;;;;;;;13.50;82.59;100520.38;5397003;32;35501;-88
2023/05/18 01:28:47;;;;;;;;;;;;;;;13.06;83.56;100526.91;5389352;32;35714;-87
2023/05/18 01:31:52;;;;;;;;;;;;;;;13.25;83.37;100527.78;5401314;32;45094;-87
2023/05/18 01:34:54;;;;;;;;;;;;;;;13.48;83.51;100531.97;5384346;32;36564;-87
2023/05/18 01:37:56;;;;;;;;;;;;;;;13.57;82.22;100522.72;5383387;32;35131;-87
2023/05/18 01:41:17;;;;;;;;;;;;;;;13.67;81.67;100526.62;5370559;32;34390;-87
2023/05/18 01:44:28;;;;;;;;;;;;;;;13.55;82.12;100534.22;5388050;32;45814;-86
2023/05/18 01:47:30;;;;;;;;;;;;;;;14.24;78.87;100536.03;5385604;32;35530;-86
2023/05/18 01:50:36;;;;;;;;;;;;;;;14.23;78.32;100536.09;5377444;32;34218;-87
2023/05/18 01:53:41;;;;;;;;;;;;;;;13.71;81.71;100538.75;5399866;32;35072;-87
2023/05/18 01:56:43;;;;;;;;;;;;;;;13.29;83.51;100537.28;5380162;32;36404;-87
2023/05/18 01:59:45;;;;;;;;;;;;;;;13.18;84.18;100540.38;5386851;32;34309;-87
2023/05/18 02:02:47;;;;;;;;;;;;;;;12.87;86.91;100548.87;5383132;32;44609;-88
2023/05/18 02:05:49;;;;;;;;;;;;;;;13.75;83.13;100545.59;5383658;32;35117;-87
2023/05/18 02:08:51;;;;;;;;;;;;;;;13.09;83.86;100550.53;5395638;32;34049;-87
2023/05/18 02:11:53;;;;;;;;;;;;;;;13.89;82.21;100552.81;5380483;32;35081;-87
2023/05/18 02:14:57;;;;;;;;;;;;;;;13.22;83.85;100556.97;5392826;32;34954;-86
2023/05/18 02:17:59;;;;;;;;;;;;;;;13.60;83.47;100556.91;5391114;32;36619;-88
2023/05/18 02:21:01;;;;;;;;;;;;;;;13.11;85.52;100560.06;5392098;32;36028;-87
2023/05/18 02:24:04;;;;;;;;;;;;;;;13.06;84.62;100564.69;5386370;32;35348;-88
2023/05/18 02:27:06;;;;;;;;;;;;;;;13.18;85.17;100569.41;5381324;32;34905;-89
2023/05/18 02:30:08;;;;;;;;;;;;;;;13.18;85.44;100571.19;5372076;32;35009;-86
2023/05/18 02:33:10;;;;;;;;;;;;;;;14.08;80.96;100564.19;5369031;32;35945;-86
2023/05/18 02:36:12;;;;;;;;;;;;;;;13.08;83.61;100570.78;5367693;32;35627;-87
2023/05/18 02:39:15;;;;;;;;;;;;;;;13.48;85.03;100568.94;5364098;32;34732;-87
2023/05/18 02:42:16;;;;;;;;;;;;;;;13.77;81.89;100571.00;5370319;32;43674;-87
2023/05/18 02:45:19;;;;;;;;;;;;;;;13.65;82.36;100576.88;5388354;32;34704;-88
2023/05/18 02:48:21;;;;;;;;;;;;;;;13.57;83.87;100573.75;5357247;32;34682;-87
2023/05/18 02:51:24;;;;;;;;;;;;;;;13.57;84.91;100578.19;5387863;32;36428;-87
2023/05/18 02:54:26;;;;;;;;;;;;;;;13.85;81.57;100572.37;5388330;32;35615;-87
2023/05/18 02:57:31;;;;;;;;;;;;;;;13.62;83.52;100576.19;5389490;32;34358;-87
2023/05/18 03:00:33;;;;;;;;;;;;;;;14.25;80.14;100576.53;5380747;32;37027;-87
2023/05/18 03:03:35;;;;;;;;;;;;;;;14.09;80.92;100574.66;5387418;32;36615;-87
2023/05/18 03:06:37;;;;;;;;;;;;;;;14.09;79.77;100560.59;5370303;32;36010;-87
2023/05/18 03:09:39;;;;;;;;;;;;;;;14.38;78.89;100574.97;5382250;32;35919;-87
2023/05/18 03:12:41;;;;;;;;;;;;;;;14.09;80.17;100569.37;5394202;32;36780;-86
2023/05/18 03:15:46;;;;;;;;;;;;;;;13.83;83.02;100573.31;5385129;32;35408;-88
2023/05/18 03:18:49;;;;;;;;;;;;;;;13.35;84.21;100575.72;5393019;32;44693;-88
2023/05/18 03:21:51;;;;;;;;;;;;;;;13.30;83.56;100586.50;5386913;32;35202;-88
2023/05/18 03:24:54;;;;;;;;;;;;;;;13.53;84.63;100580.97;5389383;32;34404;-88
2023/05/18 03:27:57;;;;;;;;;;;;;;;13.44;83.76;100586.69;5389484;32;34401;-88
2023/05/18 03:30:59;;;;;;;;;;;;;;;13.49;83.76;100583.84;5384243;32;35749;-86
2023/05/18 03:34:01;;;;;;;;;;;;;;;13.43;85.29;100584.97;5389309;32;34325;-88
2023/05/18 03:37:03;;;;;;;;;;;;;;;13.77;81.85;100583.34;5368572;32;36482;-87
2023/05/18 03:40:09;;;;;;;;;;;;;;;13.74;80.97;100586.16;5378118;32;34450;-86
2023/05/18 03:43:12;;;;;;;;;;;;;;;12.94;85.10;100597.78;5390805;32;35603;-87
2023/05/18 03:46:14;;;;;;;;;;;;;;;12.79;86.63;100595.00;5394531;32;34970;-87
2023/05/18 03:49:16;;;;;;;;;;;;;;;13.78;82.58;100591.22;5375748;32;44117;-87
2023/05/18 03:52:21;;;;;;;;;;;;;;;13.83;80.85;100591.81;5381481;32;34848;-87
2023/05/18 03:55:23;;;;;;;;;;;;;;;13.54;81.40;100601.19;5373405;32;37679;-88
2023/05/18 03:58:26;;;;;;;;;;;;;;;14.06;79.97;100598.62;5385468;32;37225;-88
2023/05/18 04:01:29;;;;;;;;;;;;;;;13.74;81.04;100607.28;5381781;32;36446;-88
2023/05/18 04:04:32;;;;;;;;;;;;;;;13.62;81.50;100608.72;5381854;32;35279;-88
2023/05/18 04:07:42;;;;;;;;;;;;;;;13.62;82.17;100607.88;5376957;32;35001;-88
2023/05/18 04:10:44;;;;;;;;;;;;;;;12.76;85.14;100606.53;5389076;32;35026;-86
2023/05/18 04:13:46;;;;;;;;;;;;;;;13.45;83.14;100600.75;5379873;32;44003;-87
2023/05/18 04:16:50;;;;;;;;;;;;;;;13.69;81.81;100614.56;5378548;32;36350;-88
2023/05/18 04:19:53;;;;;;;;;;;;;;;13.69;80.80;100617.22;5372047;32;34731;-88
2023/05/18 04:22:56;;;;;;;;;;;;;;;13.46;82.50;100627.09;5380923;32;34676;-87
2023/05/18 04:25:58;;;;;;;;;;;;;;;12.61;84.78;100629.16;5391813;32;35757;-87
2023/05/18 04:29:06;;;;;;;;;;;;;;;13.09;83.52;100627.91;5386489;32;34275;-87
2023/05/18 04:32:09;;;;;;;;;;;;;;;13.41;82.63;100626.44;5373660;32;36176;-88
2023/05/18 04:35:12;;;;;;;;;;;;;;;13.60;81.28;100628.22;5359682;32;33781;-88
2023/05/18 04:38:15;;;;;;;;;;;;;;;13.46;81.79;100632.38;5365807;32;35229;-87
2023/05/18 04:41:19;;;;;;;;;;;;;;;13.97;79.68;100633.41;5381045;32;45029;-87
2023/05/18 04:44:21;;;;;;;;;;;;;;;13.89;79.44;100635.59;5375189;32;36182;-89
2023/05/18 04:47:23;;;;;;;;;;;;;;;14.42;76.94;100636.47;5379813;32;35775;-87
2023/05/18 04:50:26;;;;;;;;;;;;;;;14.05;78.67;100638.34;5379792;32;34397;-86
2023/05/18 04:53:32;;;;;;;;;;;;;;;14.38;77.17;100635.78;5388863;32;34775;-87
2023/05/18 04:56:34;;;;;;;;;;;;;;;13.96;79.51;100622.94;5380057;32;37226;-89
2023/05/18 04:59:36;;;;;;;;;;;;;;;14.01;78.62;100628.84;5379322;32;35324;-86
2023/05/18 05:02:38;;;;;;;;;;;;;;;14.01;77.12;100631.50;5386454;32;35562;-86
2023/05/18 05:05:41;;;;;;;;;;;;;;;14.11;79.37;100638.03;5386281;32;37497;-89
2023/05/18 05:08:43;;;;;;;;;;;;;;;14.28;75.70;100631.88;5371391;32;34981;-87
2023/05/18 05:11:45;;;;;;;;;;;;;;;14.19;75.11;100645.59;5385620;32;34309;-88
2023/05/18 05:14:47;;;;;;;;;;;;;;;14.04;78.02;100648.06;5378321;32;44388;-89
2023/05/18 05:17:49;;;;;;;;;;;;;;;14.02;76.29;100639.34;5381865;32;35764;-88
2023/05/18 05:20:52;;;;;;;;;;;;;;;14.20;75.42;100647.28;5392173;32;36718;-88
2023/05/18 05:23:54;;;;;;;;;;;;;;;14.02;78.62;100652.53;5386293;32;34795;-87
2023/05/18 05:26:56;;;;;;;;;;;;;;;15.01;72.80;100651.94;5372425;32;34963;-87
2023/05/18 05:30:00;;;;;;;;;;;;;;;14.36;75.12;100653.50;5376346;32;34904;-89
2023/05/18 05:33:02;;;;;;;;;;;;;;;14.26;74.96;100657.56;5372635;32;35394;-88
2023/05/18 05:36:05;;;;;;;;;;;;;;;14.32;75.08;100652.81;5376862;32;35610;-86
2023/05/18 05:39:07;;;;;;;;;;;;;;;14.40;74.97;100652.44;5369647;32;34585;-87
2023/05/18 05:42:09;;;;;;;;;;;;;;;14.40;74.03;100657.72;5387727;32;34443;-87
2023/05/18 05:45:11;;;;;;;;;;;;;;;13.65;77.05;100668.44;5369816;32;33613;-88
2023/05/18 05:48:15;;;;;;;;;;;;;;;13.44;77.90;100665.91;5367279;32;46326;-88
2023/05/18 05:51:18;;;;;;;;;;;;;;;14.47;75.03;100666.22;5386116;32;35782;-87
2023/05/18 05:54:23;;;;;;;;;;;;;;;14.21;76.59;100678.94;5361889;32;35165;-86
2023/05/18 05:57:25;;;;;;;;;;;;;;;14.22;76.68;100667.41;5376106;32;34669;-88
2023/05/18 06:00:27;;;;;;;;;;;;;;;14.66;74.58;100667.00;5374142;32;36072;-86
2023/05/18 06:03:30;;;;;;;;;;;;;;;14.62;75.25;100679.53;5366624;32;34898;-84
2023/05/18 06:06:36;;;;;;;;;;;;;;;14.60;74.97;100683.19;5361034;32;33711;-87
2023/05/18 06:09:38;;;;;;;;;;;;;;;14.38;77.43;100683.38;5371107;32;34902;-86
2023/05/18 06:12:40;;;;;;;;;;;;;;;14.66;74.60;100682.88;5389636;32;35846;-86
2023/05/18 06:15:42;;;;;;;;;;;;;;;13.89;77.87;100699.00;5365288;32;34446;-87
2023/05/18 06:18:45;;;;;;;;;;;;;;;13.52;80.07;100695.47;5370827;32;35211;-85
2023/05/18 06:21:47;;;;;;;;;;;;;;;13.40;83.09;100697.81;5370433;32;43740;-85
2023/05/18 06:24:50;;;;;;;;;;;;;;;14.86;76.20;100692.41;5380641;32;34221;-85
2023/05/18 06:27:53;;;;;;;;;;;;;;;14.87;74.62;100696.78;5377620;32;36483;-85
2023/05/18 06:30:55;;;;;;;;;;;;;;;14.10;76.05;100699.75;5351498;32;36019;-85
2023/05/18 06:33:57;;;;;;;;;;;;;;;14.52;76.63;100694.16;5380181;32;35712;-84
2023/05/18 06:36:59;;;;;;;;;;;;;;;14.22;77.42;100711.50;5360917;32;36671;-84
2023/05/18 06:40:03;;;;;;;;;;;;;;;13.87;79.12;100710.56;5368412;32;34887;-86
2023/05/18 06:43:05;;;;;;;;;;;;;;;14.24;77.82;100702.59;5387646;32;34857;-86
2023/05/18 06:46:08;;;;;;;;;;;;;;;14.09;77.86;100705.97;5385751;32;34735;-86
2023/05/18 06:49:10;;;;;;;;;;;;;;;13.96;80.13;100712.78;5354059;32;34926;-84
2023/05/18 06:52:12;;;;;;;;;;;;;;;13.96;78.67;100718.06;5384690;32;34317;-86
2023/05/18 06:55:17;;;;;;;;;;;;;;;13.92;78.60;100727.94;5378676;32;34618;-85
2023/05/18 06:58:20;;;;;;;;;;;;;;;12.96;84.36;100729.66;5360595;32;44424;-85
2023/05/18 07:01:22;;;;;;;;;;;;;;;13.59;82.57;100729.47;5382765;32;34557;-87
2023/05/18 07:04:25;;;;;;;;;;;;;;;13.49;83.46;100735.19;5382636;32;37927;-84
2023/05/18 07:07:27;;;;;;;;;;;;;;;12.70;87.11;100734.25;5390912;32;35571;-85
2023/05/18 07:10:33;;;;;;;;;;;;;;;12.97;87.10;100734.84;5382502;32;35368;-85
2023/05/18 07:13:35;;;;;;;;;;;;;;;12.46;88.39;100738.75;5376717;32;35070;-88
2023/05/18 07:16:38;;;;;;;;;;;;;;;12.81;87.02;100746.13;5371496;32;34317;-86
2023/05/18 07:19:40;;;;;;;;;;;;;;;13.21;86.26;100745.28;5377799;32;34492;-86
2023/05/18 07:22:43;;;;;;;;;;;;;;;12.53;88.02;100744.63;5392456;32;34516;-86
2023/05/18 07:25:45;;;;;;;;;;;;;;;12.86;88.88;100742.34;5382025;32;34803;-87
2023/05/18 07:28:50;;;;;;;;;;;;;;;12.89;88.61;100738.75;5368637;32;45455;-85
2023/05/18 07:31:57;;;;;;;;;;;;;;;12.81;87.75;100756.66;5405464;32;34881;-86
2023/05/18 07:34:59;;;;;;;;;;;;;;;13.03;87.78;100760.13;5372578;32;34034;-85
2023/05/18 07:38:04;;;;;;;;;;;;;;;13.98;82.20;100754.06;5396611;32;34984;-88
2023/05/18 07:41:07;;;;;;;;;;;;;;;13.14;88.38;100759.66;5387823;32;36534;-87
2023/05/18 07:44:09;;;;;;;;;;;;;;;13.42;86.34;100761.97;5395118;32;35734;-88
2023/05/18 07:47:11;;;;;;;;;;;;;;;13.19;87.04;100768.22;5357621;32;34659;-87
2023/05/18 07:50:13;;;;;;;;;;;;;;;13.26;86.87;100761.75;5379059;32;34622;-87
2023/05/18 07:53:16;;;;;;;;;;;;;;;13.08;89.45;100765.19;5388293;32;45073;-87
2023/05/18 07:56:21;;;;;;;;;;;;;;;13.46;87.23;100776.72;5380189;32;36251;-88
2023/05/18 07:59:25;;;;;;;;;;;;;;;13.16;87.07;100763.94;5401151;32;34421;-89
2023/05/18 08:02:27;;;;;;;;;;;;;;;13.49;87.90;100764.25;5386863;32;35252;-88
2023/05/18 08:05:32;;;;;;;;;;;;;;;13.78;85.06;100772.59;5396115;32;36363;-86
2023/05/18 08:08:36;;;;;;;;;;;;;;;14.00;83.15;100772.47;5392413;32;34663;-86
2023/05/18 08:11:41;;;;;;;;;;;;;;;13.77;82.52;100770.91;5377113;32;35511;-85
2023/05/18 08:14:44;;;;;;;;;;;;;;;13.49;86.40;100771.31;5403227;32;34663;-85
2023/05/18 08:17:46;;;;;;;;;;;;;;;13.92;83.54;100774.62;5367023;32;45197;-87
2023/05/18 08:20:54;;;;;;;;;;;;;;;13.75;84.71;100780.69;5399028;32;34625;-87
2023/05/18 08:24:10;;;;;;;;;;;;;;;14.04;83.54;100779.34;5332902;32;36117;-86
2023/05/18 08:27:12;;;;;;;;;;;;;;;14.62;82.50;100780.06;5340632;32;34912;-86
2023/05/18 08:30:14;;;;;;;;;;;;;;;14.06;81.27;100773.06;5319661;32;34737;-87
2023/05/18 08:33:17;;;;;;;;;;;;;;;14.81;80.55;100779.13;5313370;32;43428;-86
2023/05/18 08:36:19;;;;;;;;;;;;;;;15.39;77.79;100784.06;5328756;32;34959;-86
2023/05/18 08:39:21;;;;;;;;;;;;;;;14.24;83.06;100786.34;5304693;32;34597;-86
2023/05/18 08:42:44;;;;;;;;;;;;;;;14.67;79.92;100784.25;5308679;32;32955;-85
2023/05/18 08:45:53;;;;;;;;;;;;;;;14.86;79.98;100785.03;5303057;32;44603;-85
2023/05/18 08:48:55;;;;;;;;;;;;;;;15.41;76.67;100780.41;5267839;32;36852;-84
2023/05/18 08:51:59;;;;;;;;;;;;;;;15.16;76.38;100780.84;5323628;32;34751;-86
2023/05/18 08:55:05;;;;;;;;;;;;;;;15.68;75.26;100782.56;5315637;32;34705;-88
2023/05/18 08:58:09;;;;;;;;;;;;;;;15.49;77.06;100787.94;5316100;32;35338;-86
2023/05/18 09:01:12;;;;;;;;;;;;;;;14.50;79.49;100787.75;5340979;32;35015;-86
2023/05/18 09:04:14;;;;;;;;;;;;;;;15.84;75.60;100783.44;5362745;32;35593;-85
2023/05/18 09:07:16;;;;;;;;;;;;;;;15.37;76.53;100778.84;5389399;32;45651;-86
2023/05/18 09:10:18;;;;;;;;;;;;;;;14.71;76.76;100784.03;5382263;32;35444;-85
2023/05/18 09:13:20;;;;;;;;;;;;;;;14.56;81.93;100772.44;5381906;32;34175;-88
2023/05/18 09:16:22;;;;;;;;;;;;;;;14.86;76.95;100771.81;5365008;32;34392;-85
2023/05/18 09:19:25;;;;;;;;;;;;;;;15.23;76.40;100778.72;5384011;32;35256;-84
2023/05/18 09:22:28;;;;;;;;;;;;;;;15.27;77.17;100779.44;5399535;32;35479;-87
2023/05/18 09:25:31;;;;;;;;;;;;;;;15.47;74.34;100778.38;5406660;32;34711;-87
2023/05/18 09:28:37;;;;;;;;;;;;;;;14.82;78.96;100783.50;5388575;32;34167;-88
2023/05/18 09:31:39;;;;;;;;;;;;;;;16.28;72.47;100784.53;5388530;32;35615;-87
2023/05/18 09:34:44;;;;;;;;;;;;;;;16.03;72.18;100782.41;5395087;32;34589;-85
2023/05/18 09:37:46;;;;;;;;;;;;;;;15.58;73.09;100778.63;5385428;32;44535;-86
2023/05/18 09:40:51;;;;;;;;;;;;;;;15.60;74.76;100782.94;5416259;32;34948;-87
2023/05/18 09:43:53;;;;;;;;;;;;;;;16.28;72.18;100784.53;5411712;32;34834;-88
2023/05/18 09:46:56;;;;;;;;;;;;;;;16.13;72.01;100787.13;5400993;32;35147;-87
2023/05/18 09:49:59;;;;;;;;;;;;;;;15.72;72.04;100796.50;5380756;32;35577;-88
2023/05/18 09:53:02;;;;;;;;;;;;;;;16.04;73.04;100786.78;5416853;32;34399;-88
2023/05/18 09:56:08;;;;;;;;;;;;;;;15.46;73.17;100793.41;5395908;32;34170;-87
2023/05/18 09:59:10;;;;;;;;;;;;;;;16.59;71.48;100784.50;5402831;32;35314;-87
2023/05/18 10:02:14;;;;;;;;;;;;;;;15.16;76.51;100788.78;5403917;32;35250;-88
2023/05/18 10:05:30;;;;;;;;;;;;;;;16.15;74.76;100782.59;5391275;32;44397;-87
2023/05/18 10:08:37;;;;;;;;;;;;;;;16.62;69.37;100780.84;5390194;32;32792;-87
2023/05/18 10:11:41;;;;;;;;;;;;;;;16.54;71.20;100781.25;5382580;32;33575;-87
2023/05/18 10:14:45;;;;;;;;;;;;;;;16.67;70.24;100776.94;5415808;32;35891;-89
2023/05/18 10:17:53;;;;;;;;;;;;;;;16.08;72.01;100791.81;5394803;32;43984;-88
2023/05/18 10:21:00;;;;;;;;;;;;;;;16.69;70.19;100783.03;5391375;32;34522;-87
2023/05/18 10:24:03;;;;;;;;;;;;;;;15.74;73.02;100784.88;5401835;32;34791;-88
2023/05/18 10:27:06;;;;;;;;;;;;;;;16.56;71.33;100776.75;5410165;32;34690;-88
2023/05/18 10:30:09;;;;;;;;;;;;;;;15.66;75.26;100793.25;5387291;32;35079;-85
2023/05/18 10:33:11;;;;;;;;;;;;;;;15.52;73.76;100795.75;5421593;32;34156;-90
2023/05/18 10:36:34;;;;;;;;;;;;;;;16.51;72.45;100786.75;5420832;32;34360;-90
2023/05/18 10:39:50;;;;;;;;;;;;;;;16.44;72.91;100793.37;5413617;32;34648;-89
2023/05/18 10:42:58;;;;;;;;;;;;;;;15.43;76.29;100797.06;5400903;32;45056;-91
2023/05/18 10:46:04;;;;;;;;;;;;;;;16.46;70.81;100800.28;5413995;32;35797;-91
2023/05/18 10:49:13;;;;;;;;;;;;;;;16.20;73.35;100799.09;5389604;32;34862;-88
2023/05/18 10:52:16;;;;;;;;;;;;;;;15.72;72.03;100793.84;5417675;32;43178;-88
2023/05/18 10:55:19;;;;;;;;;;;;;;;16.55;69.91;100796.25;5391356;32;34400;-86
2023/05/18 10:58:30;;;;;;;;;;;;;;;16.74;70.45;100783.69;5389663;32;35019;-88
2023/05/18 11:01:43;;;;;;;;;;;;;;;16.45;70.92;100795.06;5389857;32;35150;-89
2023/05/18 11:04:48;;;;;;;;;;;;;;;16.00;72.10;100788.75;5360330;32;44124;-89
2023/05/18 11:08:03;;;;;;;;;;;;;;;15.98;71.83;100793.28;5366781;32;43569;-91
2023/05/18 11:11:11;;;;;;;;;;;;;;;15.86;72.20;100788.66;5356536;32;36817;-87
2023/05/18 11:14:13;;;;;;;;;;;;;;;17.02;67.97;100790.00;5349209;32;34898;-87
2023/05/18 11:17:20;;;;;;;;;;;;;;;16.88;68.68;100797.94;5346090;32;44853;-90
2023/05/18 11:20:24;;;;;;;;;;;;;;;15.94;71.17;100799.69;5354992;32;35517;-88
2023/05/18 11:23:31;;;;;;;;;;;;;;;16.23;70.45;100800.75;5352638;32;35712;-87
2023/05/18 11:26:39;;;;;;;;;;;;;;;16.63;69.55;100793.16;5358527;32;34537;-92
2023/05/18 11:29:53;;;;;;;;;;;;;;;16.23;70.89;100798.09;5383790;32;34441;-88
2023/05/18 11:33:17;;;;;;;;;;;;;;;16.91;68.62;100803.91;5387813;32;33468;-89
2023/05/18 11:36:23;;;;;;;;;;;;;;;16.72;68.66;100801.47;5386600;32;45109;-88
2023/05/18 11:39:27;;;;;;;;;;;;;;;16.82;68.37;100808.91;5394850;32;36030;-90
2023/05/18 11:42:33;;;;;;;;;;;;;;;16.66;69.89;100814.19;5390260;32;36759;-88
2023/05/18 11:45:35;;;;;;;;;;;;;;;17.31;66.75;100806.84;5374379;32;34825;-90
2023/05/18 11:48:38;;;;;;;;;;;;;;;16.53;68.70;100817.56;5373103;32;34014;-90
2023/05/18 11:51:59;;;;;;;;;;;;;;;16.87;68.15;100812.12;5366582;32;35049;-90
2023/05/18 11:55:01;;;;;;;;;;;;;;;17.57;66.42;100815.88;5389541;32;33828;-89
2023/05/18 11:58:03;;;;;;;;;;;;;;;17.23;66.38;100822.38;5404353;32;35920;-90
2023/05/18 12:01:10;;;;;;;;;;;;;;;16.37;69.66;100821.19;5394071;32;35771;-88
2023/05/18 12:04:18;;;;;;;;;;;;;;;16.34;69.96;100824.00;5423173;32;43854;-89
2023/05/18 12:07:38;;;;;;;;;;;;;;;17.02;66.89;100819.22;5409868;32;33593;-92
2023/05/18 12:10:48;;;;;;;;;;;;;;;15.93;72.58;100821.84;5375347;32;44624;-89
2023/05/18 12:13:51;;;;;;;;;;;;;;;15.73;71.92;100824.72;5399403;32;34560;-91
2023/05/18 12:16:56;;;;;;;;;;;;;;;16.13;71.42;100818.94;5382941;32;38004;-89
2023/05/18 12:19:59;;;;;;;;;;;;;;;17.14;67.40;100812.31;5393455;32;36150;-91
2023/05/18 12:23:08;;;;;;;;;;;;;;;17.03;69.29;100818.25;5396889;32;34393;-92
2023/05/18 12:26:13;;;;;;;;;;;;;;;16.91;68.82;100821.62;5399528;32;38070;-92
2023/05/18 12:29:18;;;;;;;;;;;;;;;16.28;71.07;100829.63;5388267;32;44439;-91
2023/05/18 12:32:21;;;;;;;;;;;;;;;16.90;69.08;100814.62;5414909;32;35078;-90
2023/05/18 12:35:28;;;;;;;;;;;;;;;17.13;67.62;100811.47;5381775;32;35127;-91
2023/05/18 12:38:44;;;;;;;;;;;;;;;17.02;68.16;100824.53;5400597;32;33878;-90
2023/05/18 12:41:53;;;;;;;;;;;;;;;17.51;66.92;100816.25;5394491;32;42958;-89
2023/05/18 12:45:00;;;;;;;;;;;;;;;17.59;66.54;100809.53;5415351;32;33419;-91
2023/05/18 12:48:05;;;;;;;;;;;;;;;16.87;68.96;100812.12;5425571;32;33449;-92
2023/05/18 12:51:18;;;;;;;;;;;;;;;17.10;66.85;100810.78;5457377;32;35284;-90
2023/05/18 12:54:28;;;;;;;;;;;;;;;17.76;63.56;100820.94;5375634;32;44447;-88
2023/05/18 12:57:33;;;;;;;;;;;;;;;17.44;63.68;100809.59;5435485;32;37169;-91
2023/05/18 13:00:36;;;;;;;;;;;;;;;17.63;63.97;100804.88;5428879;32;35833;-90
2023/05/18 13:03:39;;;;;;;;;;;;;;;17.12;65.26;100815.03;5390554;32;35471;-86
2023/05/18 13:06:42;;;;;;;;;;;;;;;18.36;62.04;100808.25;5378749;32;35488;-88
2023/05/18 13:09:50;;;;;;;;;;;;;;;18.23;61.24;100812.66;5402352;32;35234;-90
2023/05/18 13:13:00;;;;;;;;;;;;;;;17.12;64.99;100809.72;5395520;32;44532;-86
2023/05/18 13:16:02;;;;;;;;;;;;;;;16.88;64.56;100803.25;5389099;32;34727;-87
2023/05/18 13:19:05;;;;;;;;;;;;;;;17.18;65.56;100813.84;5396448;32;34816;-87
2023/05/18 13:22:08;;;;;;;;;;;;;;;16.46;67.05;100820.66;5376366;32;33162;-87
2023/05/18 13:25:11;;;;;;;;;;;;;;;17.23;65.35;100817.94;5370107;32;35296;-94
2023/05/18 13:28:14;;;;;;;;;;;;;;;17.23;65.07;100809.97;5372695;32;34822;-88
2023/05/18 13:31:18;;;;;;;;;;;;;;;17.46;63.59;100813.03;5414277;32;43358;-90
2023/05/18 13:34:21;;;;;;;;;;;;;;;16.22;67.04;100818.41;5404709;32;36526;-87
2023/05/18 13:37:23;;;;;;;;;;;;;;;16.53;65.93;100822.84;5415721;32;38435;-85
2023/05/18 13:40:25;;;;;;;;;;;;;;;16.63;66.41;100822.34;5391219;32;33458;-89
2023/05/18 13:43:30;;;;;;;;;;;;;;;17.13;64.50;100822.09;5430898;32;36518;-89
2023/05/18 13:46:36;;;;;;;;;;;;;;;17.57;62.99;100818.53;5413473;32;35743;-87
2023/05/18 13:49:40;;;;;;;;;;;;;;;16.61;67.52;100824.22;5389910;32;34231;-85
2023/05/18 13:52:43;;;;;;;;;;;;;;;16.91;66.17;100822.47;5397232;32;34325;-87
2023/05/18 13:55:45;;;;;;;;;;;;;;;15.92;68.35;100820.97;5397062;32;35426;-88
2023/05/18 13:58:48;;;;;;;;;;;;;;;16.53;67.33;100828.16;5383450;32;43908;-90
2023/05/18 14:01:51;;;;;;;;;;;;;;;16.13;69.35;100834.00;5402950;32;36474;-89
2023/05/18 14:04:57;;;;;;;;;;;;;;;16.65;66.60;100826.63;5395204;32;35044;-89
2023/05/18 14:08:00;;;;;;;;;;;;;;;17.12;65.43;100828.31;5391732;32;33819;-88
2023/05/18 14:11:02;;;;;;;;;;;;;;;16.66;67.09;100830.13;5370710;32;857258;-88
2023/05/18 14:14:04;;;;;;;;;;;;;;;16.37;68.30;100832.66;5414490;32;34983;-89
2023/05/18 14:17:07;;;;;;;;;;;;;;;17.42;64.76;100822.97;5365455;32;36096;-88
2023/05/18 14:20:12;;;;;;;;;;;;;;;17.67;63.25;100827.66;5385306;32;35098;-89
2023/05/18 14:23:14;;;;;;;;;;;;;;;16.77;65.59;100836.56;5389732;32;34234;-90
2023/05/18 14:26:16;;;;;;;;;;;;;;;16.72;66.86;100838.62;5396089;32;43750;-91
2023/05/18 14:29:18;;;;;;;;;;;;;;;16.55;65.72;100830.75;5370025;32;35126;-88
2023/05/18 14:32:25;;;;;;;;;;;;;;;16.77;66.96;100836.56;5393176;32;34778;-89
2023/05/18 14:35:28;;;;;;;;;;;;;;;16.79;67.25;100839.12;5381223;32;35336;-89
2023/05/18 14:38:30;;;;;;;;;;;;;;;16.90;65.86;100830.56;5382782;32;34735;-89
2023/05/18 14:41:36;;;;;;;;;;;;;;;17.54;64.05;100827.56;5382780;32;37023;-90
2023/05/18 14:44:38;;;;;;;;;;;;;;;17.52;64.42;100833.94;5380338;32;36419;-90
2023/05/18 14:47:40;;;;;;;;;;;;;;;17.62;64.11;100835.06;5388845;32;33152;-90
2023/05/18 14:50:43;;;;;;;;;;;;;;;17.53;64.67;100835.62;5393131;32;37415;-90
2023/05/18 14:53:45;;;;;;;;;;;;;;;16.75;67.53;100850.87;5411510;32;34452;-90
2023/05/18 14:56:47;;;;;;;;;;;;;;;16.77;68.76;100856.94;5418864;32;44683;-90
2023/05/18 14:59:50;;;;;;;;;;;;;;;16.43;69.47;100857.97;5426463;32;33854;-89
2023/05/18 15:02:55;;;;;;;;;;;;;;;16.78;68.67;100856.00;5467612;32;33525;-89
2023/05/18 15:06:04;;;;;;;;;;;;;;;16.65;68.05;100854.97;5443735;32;34021;-89
2023/05/18 15:09:13;;;;;;;;;;;;;;;16.57;69.33;100854.53;5432876;32;36002;-90
2023/05/18 15:12:16;;;;;;;;;;;;;;;17.01;67.92;100849.38;5415485;32;33232;-91
2023/05/18 15:15:26;;;;;;;;;;;;;;;17.47;65.49;100849.28;5415573;32;33536;-91
2023/05/18 15:22:00;;;;;;;;;;;;;;;16.24;67.95;100861.66;5416866;32;36358;-91
2023/05/18 15:25:07;;;;;;;;;;;;;;;17.00;66.85;100851.19;5431861;32;35880;-90
2023/05/18 15:28:12;;;;;;;;;;;;;;;16.48;67.04;100853.25;5425174;32;35292;-90
2023/05/18 15:31:15;;;;;;;;;;;;;;;16.86;65.29;100850.25;5425804;32;35554;-90
2023/05/18 15:34:17;;;;;;;;;;;;;;;17.00;65.57;100853.81;5425681;32;44658;-91
2023/05/18 15:37:19;;;;;;;;;;;;;;;16.93;65.67;100860.41;5392024;32;36669;-90
2023/05/18 15:40:22;;;;;;;;;;;;;;;16.81;66.37;100863.81;5420243;32;35431;-90
2023/05/18 15:43:25;;;;;;;;;;;;;;;16.86;65.24;100848.44;5442913;32;37224;-91
2023/05/18 15:46:34;;;;;;;;;;;;;;;16.81;66.57;100861.16;5419834;32;35066;-91
2023/05/18 15:49:38;;;;;;;;;;;;;;;16.39;67.75;100859.94;5409172;32;35903;-89